createdAt,value
2022-08-11T00:00:04.654Z,6.75
2022-08-11T00:02:31.305Z,6.82
2022-08-11T00:04:57.759Z,7.65
2022-08-11T00:07:24.289Z,7.15
2022-08-11T00:09:50.799Z,7.90
2022-08-11T00:12:17.314Z,7.90
2022-08-11T00:14:43.721Z,7.78
2022-08-11T00:17:10.205Z,7.35
2022-08-11T00:20:15.171Z,7.40
2022-08-11T00:22:23.062Z,7.20
2022-08-11T00:24:53.903Z,7.60
2022-08-11T00:27:22.695Z,7.53
2022-08-11T00:29:51.770Z,7.90
2022-08-11T00:32:18.445Z,6.95
2022-08-11T00:34:44.819Z,6.90
2022-08-11T00:37:11.205Z,7.18
2022-08-11T00:39:38.947Z,7.78
2022-08-11T00:42:05.269Z,7.38
2022-08-11T00:44:31.642Z,7.03
2022-08-11T00:46:57.993Z,7.55
2022-08-11T00:49:24.358Z,7.90
2022-08-11T00:51:59.734Z,7.10
2022-08-11T00:54:33.136Z,6.60
2022-08-11T00:56:59.609Z,7.68
2022-08-11T00:59:34.943Z,7.28
2022-08-11T01:02:02.221Z,7.25
2022-08-11T01:04:28.830Z,7.47
2022-08-11T01:06:55.378Z,7.40
2022-08-11T01:09:22.990Z,6.97
2022-08-11T01:11:55.408Z,8.65
2022-08-11T01:14:33.731Z,7.07
2022-08-11T01:17:01.114Z,7.07
2022-08-11T01:19:27.875Z,6.95
2022-08-11T01:21:54.177Z,6.97
2022-08-11T01:24:22.654Z,6.43
2022-08-11T01:26:49.230Z,7.28
2022-08-11T01:29:15.755Z,7.15
2022-08-11T01:31:42.136Z,7.00
2022-08-11T01:34:08.635Z,6.95
2022-08-11T01:36:35.072Z,6.93
2022-08-11T01:39:01.565Z,7.07
2022-08-11T01:41:27.929Z,6.63
2022-08-11T01:43:54.436Z,7.20
2022-08-11T01:46:20.797Z,7.45
2022-08-11T01:48:47.811Z,7.43
2022-08-11T01:51:16.915Z,8.35
2022-08-11T01:53:43.765Z,7.00
2022-08-11T01:56:10.138Z,7.80
2022-08-11T01:58:44.224Z,7.22
2022-08-11T02:01:10.885Z,6.60
2022-08-11T02:03:37.303Z,8.88
2022-08-11T02:06:04.403Z,7.05
2022-08-11T02:08:33.047Z,7.18
2022-08-11T02:10:59.622Z,8.48
2022-08-11T02:13:33.405Z,6.57
2022-08-11T02:16:02.236Z,7.53
2022-08-11T02:18:28.571Z,6.50
2022-08-11T02:20:54.931Z,7.10
2022-08-11T02:24:04.832Z,7.13
2022-08-11T02:26:07.658Z,7.15
2022-08-11T02:28:38.739Z,8.05
2022-08-11T02:31:06.986Z,7.78
2022-08-11T02:33:41.871Z,7.25
2022-08-11T02:36:08.187Z,7.43
2022-08-11T02:38:34.580Z,7.03
2022-08-11T02:41:02.229Z,7.32
2022-08-11T02:43:28.613Z,6.88
2022-08-11T02:45:54.973Z,7.13
2022-08-11T02:48:22.110Z,6.93
2022-08-11T02:50:48.812Z,7.57
2022-08-11T02:53:15.449Z,7.65
2022-08-11T02:55:48.613Z,6.68
2022-08-11T02:58:27.107Z,7.70
2022-08-11T03:00:54.298Z,6.72
2022-08-11T03:03:20.772Z,6.63
2022-08-11T03:05:47.182Z,7.18
2022-08-11T03:08:15.015Z,6.95
2022-08-11T03:10:41.680Z,8.52
2022-08-11T03:13:08.077Z,6.95
2022-08-11T03:15:34.443Z,6.70
2022-08-11T03:18:01.290Z,7.15
2022-08-11T03:20:33.461Z,6.90
2022-08-11T03:23:04.780Z,6.97
2022-08-11T03:25:46.597Z,6.72
2022-08-11T03:28:12.883Z,7.97
2022-08-11T03:30:39.285Z,6.57
2022-08-11T03:33:05.606Z,6.72
2022-08-11T03:35:31.912Z,7.55
2022-08-11T03:37:58.271Z,7.43
2022-08-11T03:40:24.668Z,7.18
2022-08-11T03:42:51.262Z,7.35
2022-08-11T03:45:18.200Z,6.93
2022-08-11T03:47:55.128Z,7.10
2022-08-11T03:50:22.262Z,6.75
2022-08-11T03:52:48.633Z,7.05
2022-08-11T03:55:14.951Z,7.10
2022-08-11T03:57:41.399Z,7.07
2022-08-11T04:00:07.674Z,7.20
2022-08-11T04:02:36.545Z,6.63
2022-08-11T04:05:03.024Z,7.22
2022-08-11T04:07:29.396Z,7.05
2022-08-11T04:09:55.855Z,7.45
2022-08-11T04:12:36.424Z,7.40
2022-08-11T04:17:29.978Z,7.13
2022-08-11T04:19:56.333Z,6.35
2022-08-11T04:22:22.799Z,7.38
2022-08-11T04:24:50.566Z,6.65
2022-08-11T04:27:17.149Z,7.03
2022-08-11T04:30:03.287Z,6.72
2022-08-11T04:32:31.364Z,6.90
2022-08-11T04:34:57.749Z,7.05
2022-08-11T04:37:24.112Z,7.20
2022-08-11T04:39:50.763Z,6.80
2022-08-11T04:42:17.190Z,7.28
2022-08-11T04:44:43.587Z,7.85
2022-08-11T04:47:10.175Z,7.07
2022-08-11T04:49:36.466Z,7.60
2022-08-11T04:52:02.833Z,7.40
2022-08-11T04:54:29.453Z,8.32
2022-08-11T04:56:57.022Z,8.18
2022-08-11T04:59:23.445Z,7.55
2022-08-11T05:01:49.793Z,7.82
2022-08-11T05:04:16.299Z,7.40
2022-08-11T05:06:42.674Z,7.45
2022-08-11T05:09:09.027Z,8.15
2022-08-11T05:11:37.465Z,6.95
2022-08-11T05:14:03.778Z,6.68
2022-08-11T05:16:30.134Z,7.20
2022-08-11T05:18:56.576Z,7.60
2022-08-11T05:21:22.921Z,9.90
2022-08-11T05:23:49.621Z,7.75
2022-08-11T05:26:48.055Z,9.63
2022-08-11T05:29:19.352Z,12.57
2022-08-11T05:31:46.807Z,10.50
2022-08-11T05:34:13.386Z,10.48
2022-08-11T05:36:44.525Z,8.73
2022-08-11T05:39:10.903Z,10.55
2022-08-11T05:41:37.338Z,8.93
2022-08-11T05:44:20.234Z,9.60
2022-08-11T05:46:48.296Z,7.93
2022-08-11T05:49:19.547Z,8.73
2022-08-11T05:51:54.739Z,8.98
2022-08-11T05:54:29.309Z,8.73
2022-08-11T05:56:56.140Z,9.70
2022-08-11T05:59:22.463Z,7.97
2022-08-11T06:01:48.934Z,8.07
2022-08-11T06:04:15.431Z,8.32
2022-08-11T06:06:45.409Z,8.07
2022-08-11T06:09:13.399Z,72.95
2022-08-11T06:11:44.423Z,44.67
2022-08-11T06:14:12.098Z,31.83
2022-08-11T06:16:38.437Z,25.30
2022-08-11T06:19:04.827Z,20.08
2022-08-11T06:21:31.208Z,23.02
2022-08-11T06:23:58.684Z,13.43
2022-08-11T06:26:25.060Z,17.00
2022-08-11T06:28:51.621Z,14.32
2022-08-11T06:31:18.137Z,11.88
2022-08-11T06:33:44.551Z,27.38
2022-08-11T06:36:11.130Z,28.80
2022-08-11T06:38:37.555Z,39.78
2022-08-11T06:41:03.952Z,32.25
2022-08-11T06:43:30.315Z,40.70
2022-08-11T06:45:56.892Z,39.00
2022-08-11T06:48:23.392Z,49.88
2022-08-11T06:50:51.679Z,34.50
2022-08-11T06:53:18.108Z,38.00
2022-08-11T06:55:57.116Z,43.17
2022-08-11T06:58:25.129Z,171.80
2022-08-11T07:00:51.505Z,159.50
2022-08-11T07:03:18.170Z,129.55
2022-08-11T07:05:44.763Z,175.07
2022-08-11T07:08:33.514Z,180.25
2022-08-11T07:10:57.645Z,176.00
2022-08-11T07:13:44.736Z,167.35
2022-08-11T07:16:13.875Z,152.00
2022-08-11T07:18:40.723Z,135.95
2022-08-11T07:22:01.365Z,143.63
2022-08-11T07:23:53.525Z,168.88
2022-08-11T07:26:19.962Z,166.68
2022-08-11T07:28:46.385Z,168.15
2022-08-11T07:31:12.958Z,177.07
2022-08-11T07:34:07.815Z,187.43
2022-08-11T07:36:28.247Z,180.90
2022-08-11T07:38:55.443Z,176.18
2022-08-11T07:41:21.784Z,189.38
2022-08-11T07:43:48.240Z,188.80
2022-08-11T07:46:14.758Z,184.25
2022-08-11T07:48:41.122Z,175.38
2022-08-11T07:51:07.468Z,185.18
2022-08-11T07:53:33.842Z,182.82
2022-08-11T07:56:08.388Z,181.70
2022-08-11T07:58:45.687Z,179.95
2022-08-11T08:01:21.723Z,178.73
2022-08-11T08:03:53.691Z,174.98
2022-08-11T08:06:35.467Z,176.63
2022-08-11T08:09:02.401Z,167.52
2022-08-11T08:11:28.801Z,169.90
2022-08-11T08:13:55.197Z,174.57
2022-08-11T08:16:22.163Z,169.40
2022-08-11T08:18:48.511Z,177.13
2022-08-11T08:21:14.910Z,165.55
2022-08-11T08:23:41.263Z,164.50
2022-08-11T08:26:16.624Z,171.38
2022-08-11T08:28:43.291Z,160.60
2022-08-11T08:31:09.626Z,158.80
2022-08-11T08:33:35.922Z,157.40
2022-08-11T08:36:02.282Z,150.93
2022-08-11T08:38:28.602Z,154.25
2022-08-11T08:40:56.442Z,158.35
2022-08-11T08:43:23.353Z,154.68
2022-08-11T08:45:49.662Z,158.30
2022-08-11T08:48:16.012Z,150.38
2022-08-11T08:50:42.578Z,151.15
2022-08-11T08:53:13.414Z,145.15
2022-08-11T08:55:44.998Z,146.27
2022-08-11T08:58:12.038Z,140.52
2022-08-11T09:00:38.549Z,142.02
2022-08-11T09:03:22.869Z,124.25
2022-08-11T09:05:51.788Z,134.32
2022-08-11T09:08:18.094Z,129.23
2022-08-11T09:10:44.686Z,134.50
2022-08-11T09:13:11.241Z,137.60
2022-08-11T09:15:37.633Z,132.15
2022-08-11T09:18:03.932Z,129.90
2022-08-11T09:20:30.306Z,125.35
2022-08-11T09:23:35.199Z,121.65
2022-08-11T09:25:44.109Z,119.90
2022-08-11T09:28:10.427Z,124.07
2022-08-11T09:30:36.749Z,120.43
2022-08-11T09:33:03.088Z,118.78
2022-08-11T09:35:29.427Z,122.80
2022-08-11T09:37:56.623Z,114.63
2022-08-11T09:40:23.184Z,112.28
2022-08-11T09:42:53.798Z,111.90
2022-08-11T09:45:20.332Z,111.22
2022-08-11T09:47:47.055Z,104.18
2022-08-11T09:50:13.649Z,103.43
2022-08-11T09:52:52.245Z,109.20
2022-08-11T09:55:26.405Z,102.45
2022-08-11T09:57:55.263Z,97.85
2022-08-11T10:00:21.584Z,83.60
2022-08-11T10:02:48.006Z,86.55
2022-08-11T10:05:14.413Z,91.78
2022-08-11T10:07:40.782Z,82.85
2022-08-11T10:10:07.298Z,82.97
2022-08-11T10:12:33.702Z,78.78
2022-08-11T10:15:00.087Z,78.38
2022-08-11T10:17:26.626Z,73.32
2022-08-11T10:20:04.789Z,67.40
2022-08-11T10:22:34.228Z,65.70
2022-08-11T10:25:00.530Z,64.85
2022-08-11T10:28:18.376Z,62.03
2022-08-11T10:30:16.739Z,59.05
2022-08-11T10:32:58.807Z,54.47
2022-08-11T10:35:26.335Z,54.42
2022-08-11T10:38:09.051Z,53.92
2022-08-11T10:40:36.148Z,52.97
2022-08-11T10:43:02.827Z,49.53
2022-08-11T10:45:29.302Z,48.05
2022-08-11T10:47:55.675Z,49.25
2022-08-11T10:50:22.046Z,48.42
2022-08-11T10:52:48.450Z,48.95
2022-08-11T10:55:14.956Z,47.58
2022-08-11T10:57:41.547Z,48.47
2022-08-11T11:00:08.169Z,47.13
2022-08-11T11:02:34.621Z,44.70
2022-08-11T11:05:01.023Z,46.55
2022-08-11T11:07:27.474Z,45.97
2022-08-11T11:09:53.850Z,46.40
2022-08-11T11:12:20.512Z,44.85
2022-08-11T11:14:56.383Z,41.85
2022-08-11T11:17:25.403Z,44.35
2022-08-11T11:19:51.978Z,44.35
2022-08-11T11:22:18.335Z,42.42
2022-08-11T11:24:44.661Z,40.47
2022-08-11T11:27:11.030Z,34.90
2022-08-11T11:29:38.887Z,32.03
2022-08-11T11:32:05.210Z,31.70
2022-08-11T11:34:31.861Z,27.85
2022-08-11T11:36:58.942Z,28.08
2022-08-11T11:39:25.341Z,25.70
2022-08-11T11:41:51.684Z,24.73
2022-08-11T11:44:21.797Z,23.60
2022-08-11T11:46:48.209Z,23.05
2022-08-11T11:49:16.925Z,23.80
2022-08-11T11:51:44.066Z,23.25
2022-08-11T11:54:12.114Z,22.50
2022-08-11T11:56:38.726Z,19.85
2022-08-11T11:59:05.082Z,19.77
2022-08-11T12:01:31.473Z,17.52
2022-08-11T12:03:57.842Z,14.68
2022-08-11T12:06:24.325Z,13.50
2022-08-11T12:08:50.845Z,12.20
2022-08-11T12:11:17.206Z,12.07
2022-08-11T12:13:43.584Z,12.57
2022-08-11T12:16:33.299Z,8.40
2022-08-11T12:18:56.657Z,7.78
2022-08-11T12:21:23.085Z,9.95
2022-08-11T12:23:49.484Z,9.35
2022-08-11T12:26:26.933Z,8.57
2022-08-11T12:28:53.920Z,9.70
2022-08-11T12:31:20.258Z,9.05
2022-08-11T12:33:46.745Z,8.27
2022-08-11T12:36:13.180Z,7.15
2022-08-11T12:38:39.523Z,8.88
2022-08-11T12:41:15.055Z,8.18
2022-08-11T12:43:42.920Z,6.68
2022-08-11T12:46:11.003Z,7.07
2022-08-11T12:48:59.688Z,7.55
2022-08-11T12:51:23.743Z,7.70
2022-08-11T12:53:50.140Z,7.57
2022-08-11T12:56:16.650Z,6.03
2022-08-11T12:58:43.382Z,5.70
2022-08-11T13:01:12.496Z,7.28
2022-08-11T13:03:40.104Z,5.63
2022-08-11T13:06:06.510Z,5.85
2022-08-11T13:08:32.978Z,5.30
2022-08-11T13:10:59.409Z,5.45
2022-08-11T13:13:26.882Z,5.10
2022-08-11T13:16:12.200Z,5.40
2022-08-11T13:18:39.049Z,5.45
2022-08-11T13:21:05.434Z,6.03
2022-08-11T13:23:35.023Z,4.72
2022-08-11T13:26:01.405Z,5.38
2022-08-11T13:28:27.897Z,5.47
2022-08-11T13:30:54.395Z,5.55
2022-08-11T13:33:20.895Z,5.53
2022-08-11T13:35:47.233Z,5.90
2022-08-11T13:38:19.646Z,7.20
2022-08-11T13:40:55.784Z,6.47
2022-08-11T13:43:22.721Z,5.53
2022-08-11T13:45:49.072Z,6.13
2022-08-11T13:48:15.426Z,5.20
2022-08-11T13:50:41.739Z,5.97
2022-08-11T13:53:08.236Z,5.05
2022-08-11T13:55:51.871Z,4.97
2022-08-11T13:58:40.333Z,4.68
2022-08-11T14:01:11.324Z,5.25
2022-08-11T14:04:30.049Z,5.07
2022-08-11T14:06:38.193Z,5.30
2022-08-11T14:09:04.523Z,5.60
2022-08-11T14:12:21.920Z,5.63
2022-08-11T14:14:17.493Z,5.95
2022-08-11T14:16:43.949Z,5.28
2022-08-11T14:19:10.350Z,5.82
2022-08-11T14:21:36.894Z,4.72
2022-08-11T14:24:03.609Z,5.45
2022-08-11T14:26:29.994Z,5.03
2022-08-11T14:28:56.447Z,5.63
2022-08-11T14:31:22.802Z,5.22
2022-08-11T14:34:00.913Z,5.40
2022-08-11T14:36:28.326Z,5.80
2022-08-11T14:38:55.046Z,4.93
2022-08-11T14:41:21.417Z,4.82
2022-08-11T14:44:13.765Z,4.88
2022-08-11T14:46:34.409Z,4.75
2022-08-11T14:49:00.882Z,4.85
2022-08-11T14:51:27.243Z,5.72
2022-08-11T14:53:58.679Z,5.70
2022-08-11T14:56:25.449Z,5.28
2022-08-11T14:58:51.779Z,4.88
2022-08-11T15:01:18.237Z,4.90
2022-08-11T15:04:25.066Z,5.28
2022-08-11T15:06:31.083Z,5.03
2022-08-11T15:08:57.532Z,5.03
2022-08-11T15:11:23.999Z,4.70
2022-08-11T15:13:50.413Z,5.45
2022-08-11T15:16:16.774Z,4.90
2022-08-11T15:18:43.115Z,4.35
2022-08-11T15:21:09.466Z,5.40
2022-08-11T15:23:36.050Z,4.53
2022-08-11T15:26:02.498Z,4.40
2022-08-11T15:28:28.877Z,5.07
2022-08-11T15:30:55.423Z,4.93
2022-08-11T15:33:21.837Z,4.68
2022-08-11T15:35:48.252Z,4.70
2022-08-11T15:38:14.585Z,4.53
2022-08-11T15:40:40.959Z,4.38
2022-08-11T15:43:12.812Z,4.82
2022-08-11T15:45:39.378Z,4.88
2022-08-11T15:48:07.902Z,4.47
2022-08-11T15:50:37.133Z,4.43
2022-08-11T15:53:03.667Z,4.65
2022-08-11T15:55:30.035Z,4.75
2022-08-11T15:57:57.210Z,4.28
2022-08-11T16:00:24.504Z,4.95
2022-08-11T16:02:51.179Z,4.70
2022-08-11T16:05:45.726Z,4.97
2022-08-11T16:08:04.135Z,4.10
2022-08-11T16:10:30.544Z,4.43
2022-08-11T16:13:00.227Z,6.50
2022-08-11T16:15:27.325Z,7.25
2022-08-11T16:17:53.688Z,8.63
2022-08-11T16:20:20.088Z,10.93
2022-08-11T16:22:57.211Z,10.30
2022-08-11T16:27:05.337Z,7.55
2022-08-11T16:28:15.581Z,11.95
2022-08-11T16:30:42.329Z,9.40
2022-08-11T16:33:34.086Z,11.15
2022-08-11T16:35:55.141Z,8.02
2022-08-11T16:38:21.666Z,11.38
2022-08-11T16:40:49.014Z,9.05
2022-08-11T16:43:15.362Z,7.20
2022-08-11T16:45:41.858Z,7.60
2022-08-11T16:48:35.194Z,8.90
2022-08-11T16:50:54.722Z,9.35
2022-08-11T16:53:21.033Z,7.63
2022-08-11T16:56:07.307Z,9.73
2022-08-11T16:58:33.941Z,6.93
2022-08-11T17:01:00.383Z,8.60
2022-08-11T17:03:27.330Z,9.38
2022-08-11T17:05:55.109Z,6.80
2022-08-11T17:08:22.811Z,6.75
2022-08-11T17:10:54.788Z,26.15
2022-08-11T17:13:24.096Z,52.45
2022-08-11T17:15:51.053Z,43.88
2022-08-11T17:18:17.876Z,30.65
2022-08-11T17:20:44.637Z,24.80
2022-08-11T17:23:12.946Z,20.42
2022-08-11T17:26:03.793Z,17.08
2022-08-11T17:28:26.321Z,109.05
2022-08-11T17:30:52.820Z,176.80
2022-08-11T17:33:19.141Z,125.97
2022-08-11T17:35:46.006Z,92.70
2022-08-11T17:38:12.354Z,67.07
2022-08-11T17:40:39.189Z,53.90
2022-08-11T17:43:05.635Z,47.58
2022-08-11T17:45:32.500Z,39.28
2022-08-11T17:47:58.923Z,32.92
2022-08-11T17:50:25.381Z,27.92
2022-08-11T17:52:52.126Z,54.35
2022-08-11T17:55:51.028Z,39.30
2022-08-11T17:58:05.317Z,46.83
2022-08-11T18:00:31.687Z,48.38
2022-08-11T18:02:58.285Z,53.67
2022-08-11T18:05:25.127Z,39.35
2022-08-11T18:07:52.391Z,101.65
2022-08-11T18:10:18.865Z,229.77
2022-08-11T18:12:45.315Z,264.08
2022-08-11T18:15:11.816Z,232.75
2022-08-11T18:17:38.426Z,157.98
2022-08-11T18:20:04.869Z,151.20
2022-08-11T18:22:31.825Z,96.28
2022-08-11T18:24:58.428Z,93.88
2022-08-11T18:27:24.753Z,75.40
2022-08-11T18:29:51.110Z,54.60
2022-08-11T18:32:21.998Z,46.22
2022-08-11T18:34:49.975Z,43.47
2022-08-11T18:37:20.601Z,77.82
2022-08-11T18:39:56.297Z,121.93
2022-08-11T18:42:28.881Z,116.57
2022-08-11T18:44:56.210Z,54.60
2022-08-11T18:47:24.073Z,24.75
2022-08-11T18:50:03.751Z,29.13
2022-08-11T18:52:31.717Z,24.88
2022-08-11T18:55:02.332Z,29.92
2022-08-11T18:57:28.741Z,25.48
2022-08-11T18:59:57.757Z,12.00
2022-08-11T19:02:24.107Z,9.95
2022-08-11T19:04:50.855Z,11.50
2022-08-11T19:07:20.529Z,11.48
2022-08-11T19:09:47.402Z,8.00
2022-08-11T19:12:13.947Z,4.75
2022-08-11T19:14:40.298Z,5.78
2022-08-11T19:17:06.719Z,8.30
2022-08-11T19:19:33.159Z,7.82
2022-08-11T19:21:59.796Z,9.38
2022-08-11T19:24:26.330Z,5.53
2022-08-11T19:26:53.201Z,6.65
2022-08-11T19:30:07.091Z,5.32
2022-08-11T19:32:06.275Z,6.50
2022-08-11T19:34:32.875Z,12.23
2022-08-11T19:36:59.460Z,11.80
2022-08-11T19:39:25.968Z,6.68
2022-08-11T19:41:57.809Z,11.50
2022-08-11T19:44:24.295Z,16.10
2022-08-11T19:46:50.862Z,6.38
2022-08-11T19:49:17.456Z,6.07
2022-08-11T19:51:43.847Z,131.98
2022-08-11T19:54:10.271Z,89.40
2022-08-11T19:56:36.669Z,66.53
2022-08-11T19:59:03.069Z,44.17
2022-08-11T20:01:29.741Z,18.55
2022-08-11T20:03:56.396Z,8.13
2022-08-11T20:06:22.697Z,8.00
2022-08-11T20:08:49.073Z,8.75
2022-08-11T20:11:15.455Z,6.35
2022-08-11T20:13:43.439Z,7.80
2022-08-11T20:16:10.098Z,6.45
2022-08-11T20:18:36.870Z,8.77
2022-08-11T20:21:03.323Z,20.15
2022-08-11T20:23:49.592Z,40.70
2022-08-11T20:26:31.961Z,27.60
2022-08-11T20:28:58.398Z,10.75
2022-08-11T20:31:25.024Z,11.25
2022-08-11T20:33:51.381Z,10.88
2022-08-11T20:36:17.883Z,30.88
2022-08-11T20:38:44.374Z,24.42
2022-08-11T20:41:11.389Z,18.60
2022-08-11T20:44:06.058Z,13.55
2022-08-11T20:46:24.552Z,9.45
2022-08-11T20:48:50.916Z,10.93
2022-08-11T20:51:17.341Z,7.45
2022-08-11T20:53:43.730Z,7.65
2022-08-11T20:56:11.217Z,8.52
2022-08-11T21:01:38.474Z,9.88
2022-08-11T21:04:05.530Z,7.68
2022-08-11T21:06:32.971Z,14.52
2022-08-11T21:09:00.684Z,57.85
2022-08-11T21:11:28.173Z,65.47
2022-08-11T21:13:54.648Z,80.97
2022-08-11T21:16:26.342Z,75.50
2022-08-11T21:18:53.507Z,98.32
2022-08-11T21:21:19.861Z,124.55
2022-08-11T21:23:46.303Z,131.82
2022-08-11T21:26:12.818Z,132.35
2022-08-11T21:28:39.197Z,133.95
2022-08-11T21:31:06.164Z,122.78
2022-08-11T21:33:32.573Z,134.30
2022-08-11T21:35:58.957Z,137.70
2022-08-11T21:38:25.479Z,137.43
2022-08-11T21:40:51.859Z,139.93
2022-08-11T21:43:18.386Z,138.70
2022-08-11T21:45:45.009Z,155.73
2022-08-11T21:48:11.390Z,192.75
2022-08-11T21:50:42.885Z,209.50
2022-08-11T21:53:09.294Z,223.82
2022-08-11T21:55:35.634Z,238.70
2022-08-11T21:58:02.007Z,323.77
2022-08-11T22:00:28.319Z,459.10
2022-08-11T22:02:54.654Z,442.88
2022-08-11T22:05:21.255Z,470.20
2022-08-11T22:07:48.124Z,413.80
2022-08-11T22:10:40.709Z,418.90
2022-08-11T22:13:01.157Z,459.10
2022-08-11T22:15:27.652Z,495.58
2022-08-11T22:17:57.910Z,516.78
2022-08-11T22:20:25.781Z,525.35
2022-08-11T22:22:53.902Z,496.40
2022-08-11T22:25:20.991Z,504.33
2022-08-11T22:27:47.377Z,508.10
2022-08-11T22:30:14.187Z,524.78
2022-08-11T22:32:41.405Z,488.33
2022-08-11T22:35:07.867Z,482.27
2022-08-11T22:37:34.205Z,504.40
2022-08-11T22:40:02.421Z,472.80
2022-08-11T22:42:33.543Z,459.70
2022-08-11T22:45:00.526Z,476.42
2022-08-11T22:47:27.481Z,463.35
2022-08-11T22:50:05.234Z,466.70
2022-08-11T22:52:31.588Z,482.13
2022-08-11T22:54:57.906Z,490.85
2022-08-11T22:57:24.392Z,502.70
2022-08-11T22:59:50.772Z,508.30
2022-08-11T23:02:17.115Z,491.98
2022-08-11T23:04:43.576Z,495.58
2022-08-11T23:07:09.926Z,524.50
2022-08-11T23:09:36.339Z,506.00
2022-08-11T23:12:07.078Z,510.30
2022-08-11T23:14:34.407Z,501.98
2022-08-11T23:17:00.730Z,503.88
2022-08-11T23:20:06.865Z,518.35
2022-08-11T23:22:13.457Z,500.10
2022-08-11T23:24:40.004Z,522.00
2022-08-11T23:27:06.415Z,503.52
2022-08-11T23:29:32.826Z,499.95
2022-08-11T23:31:59.159Z,483.02
2022-08-11T23:34:41.551Z,489.85
2022-08-11T23:37:13.690Z,506.80
2022-08-11T23:39:40.177Z,486.15
2022-08-11T23:42:06.592Z,486.08
2022-08-11T23:44:34.489Z,470.90
2022-08-11T23:47:01.081Z,471.23
2022-08-11T23:49:27.473Z,475.63
2022-08-11T23:51:53.768Z,459.60
2022-08-11T23:54:20.087Z,466.25
2022-08-11T23:56:46.475Z,460.40
2022-08-11T23:59:13.023Z,453.85
